sensor_id;sensor_type;location;lat;lon;timestamp;P1;durP1;ratioP1;P2;durP2;ratioP2
25111;SDS011;13092;51.996;4.458;2023-09-07T00:00:50;60.13;;;54.83;;
25111;SDS011;13092;51.996;4.458;2023-09-07T00:03:18;60.65;;;55.75;;
25111;SDS011;13092;51.996;4.458;2023-09-07T00:05:48;59.92;;;55.03;;
25111;SDS011;13092;51.996;4.458;2023-09-07T00:08:18;60.30;;;55.55;;
25111;SDS011;13092;51.996;4.458;2023-09-07T00:10:46;59.83;;;55.20;;
25111;SDS011;13092;51.996;4.458;2023-09-07T00:13:14;61.92;;;56.92;;
25111;SDS011;13092;51.996;4.458;2023-09-07T00:15:43;60.60;;;55.90;;
25111;SDS011;13092;51.996;4.458;2023-09-07T00:18:11;59.78;;;55.03;;
25111;SDS011;13092;51.996;4.458;2023-09-07T00:20:41;57.92;;;53.42;;
25111;SDS011;13092;51.996;4.458;2023-09-07T00:23:11;59.80;;;55.20;;
25111;SDS011;13092;51.996;4.458;2023-09-07T00:25:39;59.53;;;55.03;;
25111;SDS011;13092;51.996;4.458;2023-09-07T00:28:07;59.10;;;54.72;;
25111;SDS011;13092;51.996;4.458;2023-09-07T00:30:36;58.30;;;53.90;;
25111;SDS011;13092;51.996;4.458;2023-09-07T00:33:04;58.67;;;54.25;;
25111;SDS011;13092;51.996;4.458;2023-09-07T00:35:33;60.85;;;56.17;;
25111;SDS011;13092;51.996;4.458;2023-09-07T00:38:01;61.33;;;56.72;;
25111;SDS011;13092;51.996;4.458;2023-09-07T00:40:31;62.38;;;57.75;;
25111;SDS011;13092;51.996;4.458;2023-09-07T00:42:59;60.40;;;55.88;;
25111;SDS011;13092;51.996;4.458;2023-09-07T00:45:28;58.78;;;54.30;;
25111;SDS011;13092;51.996;4.458;2023-09-07T00:47:59;60.80;;;56.10;;
25111;SDS011;13092;51.996;4.458;2023-09-07T00:50:27;61.35;;;56.65;;
25111;SDS011;13092;51.996;4.458;2023-09-07T00:52:55;60.47;;;55.78;;
25111;SDS011;13092;51.996;4.458;2023-09-07T00:55:23;61.58;;;56.95;;
25111;SDS011;13092;51.996;4.458;2023-09-07T00:57:53;61.72;;;57.22;;
25111;SDS011;13092;51.996;4.458;2023-09-07T01:00:22;61.35;;;56.63;;
25111;SDS011;13092;51.996;4.458;2023-09-07T01:02:51;61.78;;;56.97;;
25111;SDS011;13092;51.996;4.458;2023-09-07T01:05:20;61.08;;;56.30;;
25111;SDS011;13092;51.996;4.458;2023-09-07T01:07:53;61.80;;;57.03;;
25111;SDS011;13092;51.996;4.458;2023-09-07T01:10:25;61.60;;;56.15;;
25111;SDS011;13092;51.996;4.458;2023-09-07T01:12:54;61.72;;;56.88;;
25111;SDS011;13092;51.996;4.458;2023-09-07T01:15:22;62.05;;;57.05;;
25111;SDS011;13092;51.996;4.458;2023-09-07T01:17:50;60.33;;;55.65;;
25111;SDS011;13092;51.996;4.458;2023-09-07T01:20:19;60.22;;;55.42;;
25111;SDS011;13092;51.996;4.458;2023-09-07T01:22:50;61.85;;;57.05;;
25111;SDS011;13092;51.996;4.458;2023-09-07T01:25:18;61.35;;;56.42;;
25111;SDS011;13092;51.996;4.458;2023-09-07T01:27:47;62.42;;;57.20;;
25111;SDS011;13092;51.996;4.458;2023-09-07T01:30:16;62.88;;;57.80;;
25111;SDS011;13092;51.996;4.458;2023-09-07T01:32:45;61.38;;;56.58;;
25111;SDS011;13092;51.996;4.458;2023-09-07T01:35:15;62.75;;;57.75;;
25111;SDS011;13092;51.996;4.458;2023-09-07T01:37:52;60.50;;;55.80;;
25111;SDS011;13092;51.996;4.458;2023-09-07T01:40:20;61.47;;;56.63;;
25111;SDS011;13092;51.996;4.458;2023-09-07T01:42:48;61.65;;;56.65;;
25111;SDS011;13092;51.996;4.458;2023-09-07T01:45:17;62.65;;;57.63;;
25111;SDS011;13092;51.996;4.458;2023-09-07T01:47:45;59.38;;;54.58;;
25111;SDS011;13092;51.996;4.458;2023-09-07T01:50:14;60.40;;;55.47;;
25111;SDS011;13092;51.996;4.458;2023-09-07T01:52:42;60.83;;;55.83;;
25111;SDS011;13092;51.996;4.458;2023-09-07T01:55:11;61.05;;;56.15;;
25111;SDS011;13092;51.996;4.458;2023-09-07T01:57:40;59.28;;;54.58;;
25111;SDS011;13092;51.996;4.458;2023-09-07T02:00:08;58.50;;;53.92;;
25111;SDS011;13092;51.996;4.458;2023-09-07T02:02:37;59.80;;;54.78;;
25111;SDS011;13092;51.996;4.458;2023-09-07T02:05:06;57.88;;;53.28;;
25111;SDS011;13092;51.996;4.458;2023-09-07T02:07:34;58.20;;;53.70;;
25111;SDS011;13092;51.996;4.458;2023-09-07T02:10:04;58.35;;;53.63;;
25111;SDS011;13092;51.996;4.458;2023-09-07T02:12:35;57.55;;;53.05;;
25111;SDS011;13092;51.996;4.458;2023-09-07T02:15:04;56.17;;;51.58;;
25111;SDS011;13092;51.996;4.458;2023-09-07T02:17:33;58.10;;;53.70;;
25111;SDS011;13092;51.996;4.458;2023-09-07T02:20:01;57.15;;;52.47;;
25111;SDS011;13092;51.996;4.458;2023-09-07T02:22:35;58.22;;;53.53;;
25111;SDS011;13092;51.996;4.458;2023-09-07T02:25:03;56.33;;;51.95;;
25111;SDS011;13092;51.996;4.458;2023-09-07T02:27:33;55.95;;;51.55;;
25111;SDS011;13092;51.996;4.458;2023-09-07T02:30:04;56.67;;;52.10;;
25111;SDS011;13092;51.996;4.458;2023-09-07T02:32:34;54.88;;;50.53;;
25111;SDS011;13092;51.996;4.458;2023-09-07T02:35:02;55.42;;;51.10;;
25111;SDS011;13092;51.996;4.458;2023-09-07T02:37:31;53.97;;;49.60;;
25111;SDS011;13092;51.996;4.458;2023-09-07T02:39:59;55.20;;;50.90;;
25111;SDS011;13092;51.996;4.458;2023-09-07T02:42:33;56.30;;;51.60;;
25111;SDS011;13092;51.996;4.458;2023-09-07T02:45:02;54.33;;;50.05;;
25111;SDS011;13092;51.996;4.458;2023-09-07T02:47:31;55.60;;;51.13;;
25111;SDS011;13092;51.996;4.458;2023-09-07T02:49:59;56.60;;;52.17;;
25111;SDS011;13092;51.996;4.458;2023-09-07T02:52:28;56.65;;;52.25;;
25111;SDS011;13092;51.996;4.458;2023-09-07T02:54:56;56.47;;;52.03;;
25111;SDS011;13092;51.996;4.458;2023-09-07T02:57:24;56.13;;;51.70;;
25111;SDS011;13092;51.996;4.458;2023-09-07T02:59:54;56.50;;;52.03;;
25111;SDS011;13092;51.996;4.458;2023-09-07T03:02:22;55.97;;;51.38;;
25111;SDS011;13092;51.996;4.458;2023-09-07T03:04:53;55.85;;;51.17;;
25111;SDS011;13092;51.996;4.458;2023-09-07T03:07:25;56.40;;;51.70;;
25111;SDS011;13092;51.996;4.458;2023-09-07T03:09:53;56.15;;;51.65;;
25111;SDS011;13092;51.996;4.458;2023-09-07T03:12:22;57.35;;;52.75;;
25111;SDS011;13092;51.996;4.458;2023-09-07T03:14:51;56.53;;;52.05;;
25111;SDS011;13092;51.996;4.458;2023-09-07T03:17:20;55.92;;;51.38;;
25111;SDS011;13092;51.996;4.458;2023-09-07T03:19:49;55.78;;;51.05;;
25111;SDS011;13092;51.996;4.458;2023-09-07T03:22:17;56.35;;;51.65;;
25111;SDS011;13092;51.996;4.458;2023-09-07T03:24:45;56.50;;;51.88;;
25111;SDS011;13092;51.996;4.458;2023-09-07T03:27:13;55.72;;;51.22;;
25111;SDS011;13092;51.996;4.458;2023-09-07T03:29:41;56.60;;;52.10;;
25111;SDS011;13092;51.996;4.458;2023-09-07T03:32:09;56.13;;;51.50;;
25111;SDS011;13092;51.996;4.458;2023-09-07T03:34:40;57.42;;;52.72;;
25111;SDS011;13092;51.996;4.458;2023-09-07T03:37:08;57.28;;;52.58;;
25111;SDS011;13092;51.996;4.458;2023-09-07T03:39:38;54.97;;;50.47;;
25111;SDS011;13092;51.996;4.458;2023-09-07T03:42:06;55.17;;;50.75;;
25111;SDS011;13092;51.996;4.458;2023-09-07T03:44:34;55.75;;;51.25;;
25111;SDS011;13092;51.996;4.458;2023-09-07T03:47:02;55.80;;;51.10;;
25111;SDS011;13092;51.996;4.458;2023-09-07T03:49:31;55.70;;;51.10;;
25111;SDS011;13092;51.996;4.458;2023-09-07T03:52:02;55.92;;;51.28;;
25111;SDS011;13092;51.996;4.458;2023-09-07T03:54:30;55.63;;;50.78;;
25111;SDS011;13092;51.996;4.458;2023-09-07T03:56:58;54.60;;;50.05;;
25111;SDS011;13092;51.996;4.458;2023-09-07T03:59:27;56.75;;;51.92;;
25111;SDS011;13092;51.996;4.458;2023-09-07T04:01:55;58.38;;;53.47;;
25111;SDS011;13092;51.996;4.458;2023-09-07T04:04:23;57.15;;;52.47;;
25111;SDS011;13092;51.996;4.458;2023-09-07T04:06:52;58.20;;;53.28;;
25111;SDS011;13092;51.996;4.458;2023-09-07T04:09:21;57.65;;;52.83;;
25111;SDS011;13092;51.996;4.458;2023-09-07T04:11:49;56.92;;;52.20;;
25111;SDS011;13092;51.996;4.458;2023-09-07T04:14:17;57.13;;;52.35;;
25111;SDS011;13092;51.996;4.458;2023-09-07T04:16:45;56.65;;;52.05;;
25111;SDS011;13092;51.996;4.458;2023-09-07T04:19:14;56.45;;;51.85;;
25111;SDS011;13092;51.996;4.458;2023-09-07T04:21:42;57.92;;;53.08;;
25111;SDS011;13092;51.996;4.458;2023-09-07T04:24:10;57.28;;;52.63;;
25111;SDS011;13092;51.996;4.458;2023-09-07T04:26:39;58.85;;;53.92;;
25111;SDS011;13092;51.996;4.458;2023-09-07T04:29:07;58.65;;;53.85;;
25111;SDS011;13092;51.996;4.458;2023-09-07T04:31:36;57.35;;;52.55;;
25111;SDS011;13092;51.996;4.458;2023-09-07T04:34:05;56.08;;;51.30;;
25111;SDS011;13092;51.996;4.458;2023-09-07T04:36:33;55.78;;;50.90;;
25111;SDS011;13092;51.996;4.458;2023-09-07T04:39:02;55.72;;;51.13;;
25111;SDS011;13092;51.996;4.458;2023-09-07T04:41:33;55.15;;;50.63;;
25111;SDS011;13092;51.996;4.458;2023-09-07T04:44:02;54.38;;;49.90;;
25111;SDS011;13092;51.996;4.458;2023-09-07T04:46:31;54.70;;;50.10;;
25111;SDS011;13092;51.996;4.458;2023-09-07T04:48:59;54.53;;;49.92;;
25111;SDS011;13092;51.996;4.458;2023-09-07T04:51:27;53.70;;;49.40;;
25111;SDS011;13092;51.996;4.458;2023-09-07T04:53:56;54.75;;;50.35;;
25111;SDS011;13092;51.996;4.458;2023-09-07T04:56:24;55.00;;;50.50;;
25111;SDS011;13092;51.996;4.458;2023-09-07T04:58:54;55.67;;;51.03;;
25111;SDS011;13092;51.996;4.458;2023-09-07T05:01:24;55.35;;;50.72;;
25111;SDS011;13092;51.996;4.458;2023-09-07T05:03:52;56.38;;;51.40;;
25111;SDS011;13092;51.996;4.458;2023-09-07T05:06:21;56.90;;;52.15;;
25111;SDS011;13092;51.996;4.458;2023-09-07T05:08:50;57.47;;;52.85;;
25111;SDS011;13092;51.996;4.458;2023-09-07T05:11:18;57.70;;;52.72;;
25111;SDS011;13092;51.996;4.458;2023-09-07T05:13:46;59.15;;;54.15;;
25111;SDS011;13092;51.996;4.458;2023-09-07T05:16:14;58.90;;;53.85;;
25111;SDS011;13092;51.996;4.458;2023-09-07T05:18:44;59.53;;;54.55;;
25111;SDS011;13092;51.996;4.458;2023-09-07T05:21:12;56.67;;;52.08;;
25111;SDS011;13092;51.996;4.458;2023-09-07T05:23:41;57.45;;;52.80;;
25111;SDS011;13092;51.996;4.458;2023-09-07T05:26:09;57.50;;;52.67;;
25111;SDS011;13092;51.996;4.458;2023-09-07T05:28:39;58.30;;;53.38;;
25111;SDS011;13092;51.996;4.458;2023-09-07T05:31:08;57.92;;;53.25;;
25111;SDS011;13092;51.996;4.458;2023-09-07T05:33:36;57.80;;;52.95;;
25111;SDS011;13092;51.996;4.458;2023-09-07T05:36:06;57.58;;;52.60;;
25111;SDS011;13092;51.996;4.458;2023-09-07T05:38:34;58.08;;;53.08;;
25111;SDS011;13092;51.996;4.458;2023-09-07T05:41:04;58.28;;;53.45;;
25111;SDS011;13092;51.996;4.458;2023-09-07T05:43:32;58.28;;;53.58;;
25111;SDS011;13092;51.996;4.458;2023-09-07T05:46:00;57.10;;;52.22;;
25111;SDS011;13092;51.996;4.458;2023-09-07T05:48:28;58.38;;;53.38;;
25111;SDS011;13092;51.996;4.458;2023-09-07T05:50:57;57.55;;;52.75;;
25111;SDS011;13092;51.996;4.458;2023-09-07T05:53:27;55.63;;;50.97;;
25111;SDS011;13092;51.996;4.458;2023-09-07T05:55:55;56.03;;;51.28;;
25111;SDS011;13092;51.996;4.458;2023-09-07T05:58:23;56.55;;;51.75;;
25111;SDS011;13092;51.996;4.458;2023-09-07T06:00:51;57.45;;;52.30;;
25111;SDS011;13092;51.996;4.458;2023-09-07T06:03:20;56.88;;;52.00;;
25111;SDS011;13092;51.996;4.458;2023-09-07T06:05:48;56.42;;;51.72;;
25111;SDS011;13092;51.996;4.458;2023-09-07T06:08:16;56.10;;;51.40;;
25111;SDS011;13092;51.996;4.458;2023-09-07T06:10:45;54.80;;;50.25;;
25111;SDS011;13092;51.996;4.458;2023-09-07T06:13:13;55.30;;;50.50;;
25111;SDS011;13092;51.996;4.458;2023-09-07T06:15:42;55.03;;;50.05;;
25111;SDS011;13092;51.996;4.458;2023-09-07T06:18:10;52.55;;;48.28;;
25111;SDS011;13092;51.996;4.458;2023-09-07T06:20:38;53.88;;;49.38;;
25111;SDS011;13092;51.996;4.458;2023-09-07T06:23:07;53.63;;;49.20;;
25111;SDS011;13092;51.996;4.458;2023-09-07T06:25:35;53.08;;;48.55;;
25111;SDS011;13092;51.996;4.458;2023-09-07T06:28:05;54.35;;;49.60;;
25111;SDS011;13092;51.996;4.458;2023-09-07T06:30:33;52.60;;;48.35;;
25111;SDS011;13092;51.996;4.458;2023-09-07T06:33:03;52.35;;;48.15;;
25111;SDS011;13092;51.996;4.458;2023-09-07T06:35:31;53.35;;;48.40;;
25111;SDS011;13092;51.996;4.458;2023-09-07T06:37:59;53.78;;;49.17;;
25111;SDS011;13092;51.996;4.458;2023-09-07T06:40:28;52.47;;;48.38;;
25111;SDS011;13092;51.996;4.458;2023-09-07T06:42:56;51.70;;;47.45;;
25111;SDS011;13092;51.996;4.458;2023-09-07T06:45:26;51.88;;;47.88;;
25111;SDS011;13092;51.996;4.458;2023-09-07T06:47:54;51.35;;;47.30;;
25111;SDS011;13092;51.996;4.458;2023-09-07T06:50:22;51.17;;;47.08;;
25111;SDS011;13092;51.996;4.458;2023-09-07T06:52:50;51.50;;;47.50;;
25111;SDS011;13092;51.996;4.458;2023-09-07T06:55:18;51.67;;;47.55;;
25111;SDS011;13092;51.996;4.458;2023-09-07T06:57:47;51.25;;;47.35;;
25111;SDS011;13092;51.996;4.458;2023-09-07T07:00:16;50.35;;;46.03;;
25111;SDS011;13092;51.996;4.458;2023-09-07T07:02:45;51.45;;;47.22;;
25111;SDS011;13092;51.996;4.458;2023-09-07T07:05:14;51.35;;;47.20;;
25111;SDS011;13092;51.996;4.458;2023-09-07T07:07:42;50.83;;;46.95;;
25111;SDS011;13092;51.996;4.458;2023-09-07T07:10:10;50.20;;;46.13;;
25111;SDS011;13092;51.996;4.458;2023-09-07T07:12:39;50.75;;;46.75;;
25111;SDS011;13092;51.996;4.458;2023-09-07T07:15:07;51.08;;;46.63;;
25111;SDS011;13092;51.996;4.458;2023-09-07T07:17:38;50.72;;;46.60;;
25111;SDS011;13092;51.996;4.458;2023-09-07T07:20:09;49.28;;;45.55;;
25111;SDS011;13092;51.996;4.458;2023-09-07T07:22:38;50.80;;;46.63;;
25111;SDS011;13092;51.996;4.458;2023-09-07T07:25:06;49.42;;;45.55;;
25111;SDS011;13092;51.996;4.458;2023-09-07T07:27:36;50.60;;;46.17;;
25111;SDS011;13092;51.996;4.458;2023-09-07T07:30:05;47.88;;;44.17;;
25111;SDS011;13092;51.996;4.458;2023-09-07T07:32:34;48.97;;;45.30;;
25111;SDS011;13092;51.996;4.458;2023-09-07T07:35:02;48.08;;;44.22;;
25111;SDS011;13092;51.996;4.458;2023-09-07T07:37:34;48.47;;;44.42;;
25111;SDS011;13092;51.996;4.458;2023-09-07T07:40:02;47.10;;;43.30;;
25111;SDS011;13092;51.996;4.458;2023-09-07T07:42:32;46.35;;;43.05;;
25111;SDS011;13092;51.996;4.458;2023-09-07T07:45:00;46.17;;;42.70;;
25111;SDS011;13092;51.996;4.458;2023-09-07T07:47:28;48.38;;;44.60;;
25111;SDS011;13092;51.996;4.458;2023-09-07T07:49:56;47.20;;;43.63;;
25111;SDS011;13092;51.996;4.458;2023-09-07T07:52:24;46.05;;;42.85;;
25111;SDS011;13092;51.996;4.458;2023-09-07T07:54:54;45.10;;;41.90;;
25111;SDS011;13092;51.996;4.458;2023-09-07T07:57:22;45.90;;;42.60;;
25111;SDS011;13092;51.996;4.458;2023-09-07T07:59:50;46.83;;;43.25;;
25111;SDS011;13092;51.996;4.458;2023-09-07T08:02:18;46.20;;;42.58;;
25111;SDS011;13092;51.996;4.458;2023-09-07T08:04:47;44.22;;;40.88;;
25111;SDS011;13092;51.996;4.458;2023-09-07T08:07:16;44.45;;;41.15;;
25111;SDS011;13092;51.996;4.458;2023-09-07T08:09:44;45.42;;;42.17;;
25111;SDS011;13092;51.996;4.458;2023-09-07T08:12:14;43.00;;;39.80;;
25111;SDS011;13092;51.996;4.458;2023-09-07T08:14:43;41.80;;;38.88;;
25111;SDS011;13092;51.996;4.458;2023-09-07T08:17:12;45.03;;;41.60;;
25111;SDS011;13092;51.996;4.458;2023-09-07T08:19:40;43.38;;;40.05;;
25111;SDS011;13092;51.996;4.458;2023-09-07T08:22:10;41.92;;;38.80;;
25111;SDS011;13092;51.996;4.458;2023-09-07T08:24:38;39.67;;;36.70;;
25111;SDS011;13092;51.996;4.458;2023-09-07T08:27:06;39.78;;;36.88;;
25111;SDS011;13092;51.996;4.458;2023-09-07T08:29:39;38.10;;;35.33;;
25111;SDS011;13092;51.996;4.458;2023-09-07T08:32:07;37.28;;;34.67;;
25111;SDS011;13092;51.996;4.458;2023-09-07T08:34:38;37.58;;;34.88;;
25111;SDS011;13092;51.996;4.458;2023-09-07T08:37:07;34.50;;;31.90;;
25111;SDS011;13092;51.996;4.458;2023-09-07T08:39:35;36.30;;;33.70;;
25111;SDS011;13092;51.996;4.458;2023-09-07T08:42:05;34.60;;;32.13;;
25111;SDS011;13092;51.996;4.458;2023-09-07T08:44:34;35.60;;;33.13;;
25111;SDS011;13092;51.996;4.458;2023-09-07T08:47:07;35.65;;;32.90;;
25111;SDS011;13092;51.996;4.458;2023-09-07T08:49:36;35.28;;;32.72;;
25111;SDS011;13092;51.996;4.458;2023-09-07T08:52:04;35.65;;;33.17;;
25111;SDS011;13092;51.996;4.458;2023-09-07T08:54:33;34.50;;;32.08;;
25111;SDS011;13092;51.996;4.458;2023-09-07T08:57:03;35.90;;;33.30;;
25111;SDS011;13092;51.996;4.458;2023-09-07T08:59:32;36.85;;;34.25;;
25111;SDS011;13092;51.996;4.458;2023-09-07T09:02:02;35.30;;;32.80;;
25111;SDS011;13092;51.996;4.458;2023-09-07T09:04:35;36.90;;;33.88;;
25111;SDS011;13092;51.996;4.458;2023-09-07T09:07:03;38.38;;;35.50;;
25111;SDS011;13092;51.996;4.458;2023-09-07T09:09:32;36.13;;;33.45;;
25111;SDS011;13092;51.996;4.458;2023-09-07T09:12:06;36.35;;;33.80;;
25111;SDS011;13092;51.996;4.458;2023-09-07T09:14:35;34.85;;;32.35;;
25111;SDS011;13092;51.996;4.458;2023-09-07T09:17:05;35.00;;;32.55;;
25111;SDS011;13092;51.996;4.458;2023-09-07T09:19:33;35.92;;;33.30;;
25111;SDS011;13092;51.996;4.458;2023-09-07T09:22:02;36.33;;;33.53;;
25111;SDS011;13092;51.996;4.458;2023-09-07T09:24:31;35.30;;;32.85;;
25111;SDS011;13092;51.996;4.458;2023-09-07T09:27:00;34.65;;;32.20;;
25111;SDS011;13092;51.996;4.458;2023-09-07T09:29:29;36.20;;;33.65;;
25111;SDS011;13092;51.996;4.458;2023-09-07T09:32:00;39.33;;;36.53;;
25111;SDS011;13092;51.996;4.458;2023-09-07T09:34:33;38.35;;;35.60;;
25111;SDS011;13092;51.996;4.458;2023-09-07T09:37:02;41.72;;;38.72;;
25111;SDS011;13092;51.996;4.458;2023-09-07T09:39:31;41.67;;;38.78;;
25111;SDS011;13092;51.996;4.458;2023-09-07T09:42:00;43.38;;;40.47;;
25111;SDS011;13092;51.996;4.458;2023-09-07T09:44:30;42.60;;;39.67;;
25111;SDS011;13092;51.996;4.458;2023-09-07T09:46:59;37.28;;;34.88;;
25111;SDS011;13092;51.996;4.458;2023-09-07T09:49:28;38.08;;;35.60;;
25111;SDS011;13092;51.996;4.458;2023-09-07T09:51:58;39.22;;;36.53;;
25111;SDS011;13092;51.996;4.458;2023-09-07T09:54:28;37.35;;;34.75;;
25111;SDS011;13092;51.996;4.458;2023-09-07T09:56:58;34.95;;;32.55;;
25111;SDS011;13092;51.996;4.458;2023-09-07T09:59:27;34.92;;;32.63;;
25111;SDS011;13092;51.996;4.458;2023-09-07T10:01:55;35.50;;;33.08;;
25111;SDS011;13092;51.996;4.458;2023-09-07T10:04:27;35.60;;;33.10;;
25111;SDS011;13092;51.996;4.458;2023-09-07T10:06:59;38.45;;;35.85;;
25111;SDS011;13092;51.996;4.458;2023-09-07T10:09:32;41.28;;;38.38;;
25111;SDS011;13092;51.996;4.458;2023-09-07T10:12:01;40.20;;;37.50;;
25111;SDS011;13092;51.996;4.458;2023-09-07T10:14:40;40.88;;;37.90;;
25111;SDS011;13092;51.996;4.458;2023-09-07T10:17:10;38.70;;;36.10;;
25111;SDS011;13092;51.996;4.458;2023-09-07T10:19:49;33.70;;;31.38;;
25111;SDS011;13092;51.996;4.458;2023-09-07T10:22:22;29.33;;;27.33;;
25111;SDS011;13092;51.996;4.458;2023-09-07T10:24:56;18.42;;;17.02;;
25111;SDS011;13092;51.996;4.458;2023-09-07T10:27:25;15.32;;;13.50;;
25111;SDS011;13092;51.996;4.458;2023-09-07T10:30:09;10.00;;;7.57;;
25111;SDS011;13092;51.996;4.458;2023-09-07T10:32:38;10.55;;;6.53;;
25111;SDS011;13092;51.996;4.458;2023-09-07T10:35:12;13.07;;;6.63;;
25111;SDS011;13092;51.996;4.458;2023-09-07T10:37:42;9.18;;;5.32;;
25111;SDS011;13092;51.996;4.458;2023-09-07T10:40:18;9.07;;;5.75;;
25111;SDS011;13092;51.996;4.458;2023-09-07T10:42:48;9.23;;;5.30;;
25111;SDS011;13092;51.996;4.458;2023-09-07T10:45:16;9.43;;;5.28;;
25111;SDS011;13092;51.996;4.458;2023-09-07T10:47:44;8.63;;;5.30;;
25111;SDS011;13092;51.996;4.458;2023-09-07T10:50:13;8.50;;;5.25;;
25111;SDS011;13092;51.996;4.458;2023-09-07T10:52:43;8.57;;;5.25;;
25111;SDS011;13092;51.996;4.458;2023-09-07T10:55:11;12.10;;;6.10;;
25111;SDS011;13092;51.996;4.458;2023-09-07T10:57:43;8.27;;;5.25;;
25111;SDS011;13092;51.996;4.458;2023-09-07T11:00:11;11.88;;;5.28;;
25111;SDS011;13092;51.996;4.458;2023-09-07T11:02:41;9.13;;;5.47;;
25111;SDS011;13092;51.996;4.458;2023-09-07T11:05:11;7.65;;;5.40;;
25111;SDS011;13092;51.996;4.458;2023-09-07T11:07:39;12.98;;;5.40;;
25111;SDS011;13092;51.996;4.458;2023-09-07T11:10:11;6.10;;;4.32;;
25111;SDS011;13092;51.996;4.458;2023-09-07T11:12:39;7.97;;;5.22;;
25111;SDS011;13092;51.996;4.458;2023-09-07T11:15:08;8.02;;;4.97;;
25111;SDS011;13092;51.996;4.458;2023-09-07T11:17:37;5.72;;;4.38;;
25111;SDS011;13092;51.996;4.458;2023-09-07T11:20:06;10.50;;;4.57;;
25111;SDS011;13092;51.996;4.458;2023-09-07T11:22:36;8.10;;;4.00;;
25111;SDS011;13092;51.996;4.458;2023-09-07T11:25:26;6.50;;;4.57;;
25111;SDS011;13092;51.996;4.458;2023-09-07T11:27:54;9.77;;;4.80;;
25111;SDS011;13092;51.996;4.458;2023-09-07T11:30:25;9.35;;;4.95;;
25111;SDS011;13092;51.996;4.458;2023-09-07T11:33:00;9.02;;;5.07;;
25111;SDS011;13092;51.996;4.458;2023-09-07T11:35:32;7.68;;;4.75;;
25111;SDS011;13092;51.996;4.458;2023-09-07T11:38:00;8.75;;;4.65;;
25111;SDS011;13092;51.996;4.458;2023-09-07T11:40:33;6.70;;;4.00;;
25111;SDS011;13092;51.996;4.458;2023-09-07T11:43:01;6.90;;;3.92;;
25111;SDS011;13092;51.996;4.458;2023-09-07T11:45:30;8.50;;;4.32;;
25111;SDS011;13092;51.996;4.458;2023-09-07T11:47:58;6.32;;;4.35;;
25111;SDS011;13092;51.996;4.458;2023-09-07T11:50:27;9.10;;;4.40;;
25111;SDS011;13092;51.996;4.458;2023-09-07T11:52:56;8.88;;;5.10;;
25111;SDS011;13092;51.996;4.458;2023-09-07T11:55:24;8.75;;;4.57;;
25111;SDS011;13092;51.996;4.458;2023-09-07T11:57:54;9.48;;;4.28;;
25111;SDS011;13092;51.996;4.458;2023-09-07T12:00:23;8.10;;;4.45;;
25111;SDS011;13092;51.996;4.458;2023-09-07T12:02:51;6.80;;;4.07;;
25111;SDS011;13092;51.996;4.458;2023-09-07T12:05:19;7.55;;;4.20;;
25111;SDS011;13092;51.996;4.458;2023-09-07T12:07:47;6.45;;;4.35;;
25111;SDS011;13092;51.996;4.458;2023-09-07T12:10:15;10.88;;;4.43;;
25111;SDS011;13092;51.996;4.458;2023-09-07T12:12:44;7.88;;;4.75;;
25111;SDS011;13092;51.996;4.458;2023-09-07T12:15:13;5.03;;;3.88;;
25111;SDS011;13092;51.996;4.458;2023-09-07T12:17:42;8.40;;;3.72;;
25111;SDS011;13092;51.996;4.458;2023-09-07T12:20:10;5.13;;;4.05;;
25111;SDS011;13092;51.996;4.458;2023-09-07T12:22:40;8.02;;;4.57;;
25111;SDS011;13092;51.996;4.458;2023-09-07T12:25:09;8.10;;;4.13;;
25111;SDS011;13092;51.996;4.458;2023-09-07T12:27:41;7.93;;;4.47;;
25111;SDS011;13092;51.996;4.458;2023-09-07T12:30:21;7.30;;;4.10;;
25111;SDS011;13092;51.996;4.458;2023-09-07T12:32:50;8.73;;;4.10;;
25111;SDS011;13092;51.996;4.458;2023-09-07T12:35:19;6.63;;;4.22;;
25111;SDS011;13092;51.996;4.458;2023-09-07T12:37:47;5.07;;;3.80;;
25111;SDS011;13092;51.996;4.458;2023-09-07T12:40:16;5.93;;;3.97;;
25111;SDS011;13092;51.996;4.458;2023-09-07T12:42:45;8.13;;;3.90;;
25111;SDS011;13092;51.996;4.458;2023-09-07T12:45:13;7.03;;;3.95;;
25111;SDS011;13092;51.996;4.458;2023-09-07T12:47:43;5.53;;;3.83;;
25111;SDS011;13092;51.996;4.458;2023-09-07T12:50:11;7.85;;;4.43;;
25111;SDS011;13092;51.996;4.458;2023-09-07T12:52:40;5.85;;;3.63;;
25111;SDS011;13092;51.996;4.458;2023-09-07T12:55:08;9.63;;;3.90;;
25111;SDS011;13092;51.996;4.458;2023-09-07T12:57:37;6.40;;;3.85;;
25111;SDS011;13092;51.996;4.458;2023-09-07T13:00:07;7.25;;;4.13;;
25111;SDS011;13092;51.996;4.458;2023-09-07T13:02:37;7.57;;;4.00;;
25111;SDS011;13092;51.996;4.458;2023-09-07T13:05:07;4.47;;;3.63;;
25111;SDS011;13092;51.996;4.458;2023-09-07T13:07:35;11.27;;;3.97;;
25111;SDS011;13092;51.996;4.458;2023-09-07T13:10:04;7.05;;;3.85;;
25111;SDS011;13092;51.996;4.458;2023-09-07T13:12:33;6.60;;;3.88;;
25111;SDS011;13092;51.996;4.458;2023-09-07T13:15:01;7.88;;;3.65;;
25111;SDS011;13092;51.996;4.458;2023-09-07T13:17:29;7.32;;;4.00;;
25111;SDS011;13092;51.996;4.458;2023-09-07T13:19:58;7.50;;;4.60;;
25111;SDS011;13092;51.996;4.458;2023-09-07T13:22:28;6.85;;;4.05;;
25111;SDS011;13092;51.996;4.458;2023-09-07T13:24:56;7.45;;;4.00;;
25111;SDS011;13092;51.996;4.458;2023-09-07T13:27:24;7.60;;;4.32;;
25111;SDS011;13092;51.996;4.458;2023-09-07T13:29:52;6.50;;;3.95;;
25111;SDS011;13092;51.996;4.458;2023-09-07T13:32:20;8.23;;;4.00;;
25111;SDS011;13092;51.996;4.458;2023-09-07T13:34:48;7.28;;;4.10;;
25111;SDS011;13092;51.996;4.458;2023-09-07T13:37:16;7.47;;;3.75;;
25111;SDS011;13092;51.996;4.458;2023-09-07T13:39:46;7.88;;;4.05;;
25111;SDS011;13092;51.996;4.458;2023-09-07T13:42:15;6.63;;;4.07;;
25111;SDS011;13092;51.996;4.458;2023-09-07T13:44:44;5.78;;;3.90;;
25111;SDS011;13092;51.996;4.458;2023-09-07T13:47:13;7.63;;;4.43;;
25111;SDS011;13092;51.996;4.458;2023-09-07T13:49:41;6.05;;;3.97;;
25111;SDS011;13092;51.996;4.458;2023-09-07T13:52:09;5.75;;;3.95;;
25111;SDS011;13092;51.996;4.458;2023-09-07T13:54:40;5.57;;;3.80;;
25111;SDS011;13092;51.996;4.458;2023-09-07T13:57:10;7.82;;;4.20;;
25111;SDS011;13092;51.996;4.458;2023-09-07T13:59:38;7.70;;;4.03;;
25111;SDS011;13092;51.996;4.458;2023-09-07T14:02:06;9.95;;;4.10;;
25111;SDS011;13092;51.996;4.458;2023-09-07T14:04:34;7.63;;;3.80;;
25111;SDS011;13092;51.996;4.458;2023-09-07T14:07:03;7.30;;;3.97;;
25111;SDS011;13092;51.996;4.458;2023-09-07T14:09:31;7.25;;;3.75;;
25111;SDS011;13092;51.996;4.458;2023-09-07T14:11:59;7.80;;;4.03;;
25111;SDS011;13092;51.996;4.458;2023-09-07T14:14:29;7.22;;;3.90;;
25111;SDS011;13092;51.996;4.458;2023-09-07T14:16:57;6.95;;;4.03;;
25111;SDS011;13092;51.996;4.458;2023-09-07T14:19:27;6.40;;;3.92;;
25111;SDS011;13092;51.996;4.458;2023-09-07T14:21:57;6.55;;;4.10;;
25111;SDS011;13092;51.996;4.458;2023-09-07T14:24:25;6.28;;;3.40;;
25111;SDS011;13092;51.996;4.458;2023-09-07T14:26:54;5.53;;;3.60;;
25111;SDS011;13092;51.996;4.458;2023-09-07T14:29:22;6.28;;;4.15;;
25111;SDS011;13092;51.996;4.458;2023-09-07T14:31:52;6.13;;;4.03;;
25111;SDS011;13092;51.996;4.458;2023-09-07T14:34:20;5.78;;;4.18;;
25111;SDS011;13092;51.996;4.458;2023-09-07T14:36:48;6.35;;;3.83;;
25111;SDS011;13092;51.996;4.458;2023-09-07T14:39:17;5.13;;;3.90;;